»·PEaware :: N74KW 2O7-3L2

N74KW :: 2O7-3L2

FLIGHT INFORMATION

Flight Status: Arrived
Operator: Privately registered:
United States
More flights under this callsign
Pilot: Charles C. (26995)
Aircraft: MCDONNELL-DOUGLAS SKYTRAIN C-47
(DC3)
More flights by this aircraft type
Origin: 2O7 Independence
United States
Destination: 3L2 Sky Ranch
United States
More flights between these airports :: More routes between these airports
Route: O26
File this flight plan on PilotEdge
Remarks:
Altitude:
(Current/Filed)
9,500ft
Speed:
(Current/Filed)
150kts
Departed: 16-Aug-20 02:02 PM
Arrived: 16-Aug-20 02:55 PM
Distance/Time
Traveled:
140nm/0:52
Distance/Time
To Go:
Arrived

Flight Plot

Page will automatically refresh every two minutes.

Flight plan parsing failed; only flown route is shown


Map Options




Map Legend


Flown Route
Filed Route
Departure Airport
Arrival Airport
Navaid (VOR, NDB)
Fix

Horizontal Profiles

Position Reports

Time Latitude Longitude Heading Altitude Ground
Speed
16-Aug-20 13:57 36.809940 -118.202652 247 3907ft 0kts
16-Aug-20 13:58 36.809926 -118.202688 245 3907ft 0kts
16-Aug-20 13:59 36.809922 -118.202876 351 3908ft 1kts
16-Aug-20 14:00 36.811370 -118.202379 330 3904ft 12kts
16-Aug-20 14:01 36.825773 -118.209307 339 4002ft 111kts
16-Aug-20 14:02 36.845307 -118.189755 113 4742ft 123kts
16-Aug-20 14:03 36.817361 -118.160936 149 5326ft 128kts
16-Aug-20 14:04 36.783255 -118.142963 158 5819ft 138kts
16-Aug-20 14:05 36.749447 -118.123813 161 6465ft 132kts
16-Aug-20 14:06 36.714717 -118.106931 161 6917ft 145kts
16-Aug-20 14:07 36.675366 -118.087958 161 7315ft 154kts
16-Aug-20 14:08 36.635905 -118.068970 161 7827ft 152kts
16-Aug-20 14:09 36.596682 -118.050102 161 8315ft 153kts
16-Aug-20 14:10 36.576915 -118.003912 110 8778ft 155kts
16-Aug-20 14:11 36.561035 -117.953421 110 9274ft 158kts
16-Aug-20 14:12 36.544424 -117.900823 110 9508ft 175kts
16-Aug-20 14:13 36.525705 -117.841673 110 9504ft 189kts
16-Aug-20 14:14 36.506472 -117.781029 110 9503ft 193kts
16-Aug-20 14:15 36.486866 -117.719329 110 9502ft 189kts
16-Aug-20 14:16 36.467479 -117.658462 110 9400ft 194kts
16-Aug-20 14:17 36.447717 -117.596529 110 9392ft 192kts
16-Aug-20 14:18 36.428027 -117.534956 110 9394ft 191kts
16-Aug-20 14:19 36.409193 -117.473303 107 9393ft 190kts
16-Aug-20 14:20 36.391135 -117.411646 110 9394ft 190kts
16-Aug-20 14:21 36.371778 -117.350733 110 9393ft 190kts
16-Aug-20 14:22 36.352176 -117.289761 111 9392ft 189kts
16-Aug-20 14:23 36.332735 -117.229492 111 9392ft 185kts
16-Aug-20 14:24 36.322214 -117.167680 99 9392ft 182kts
16-Aug-20 14:25 36.313893 -117.107069 98 9474ft 178kts
16-Aug-20 14:26 36.302756 -117.046678 102 9466ft 180kts
16-Aug-20 14:27 36.286691 -116.988572 111 9456ft 181kts
16-Aug-20 14:28 36.267167 -116.931035 113 9447ft 181kts
16-Aug-20 14:29 36.247199 -116.873790 113 9440ft 181kts
16-Aug-20 14:30 36.227212 -116.816802 113 9438ft 180kts
16-Aug-20 14:32 36.207255 -116.760007 113 9440ft 180kts
16-Aug-20 14:33 36.187250 -116.703214 113 9439ft 179kts
16-Aug-20 14:34 36.167253 -116.646538 113 9438ft 179kts
16-Aug-20 14:35 36.147286 -116.590047 113 9439ft 178kts
16-Aug-20 14:36 36.127354 -116.533758 114 9439ft 178kts
16-Aug-20 14:37 36.107367 -116.477416 114 9439ft 178kts
16-Aug-20 14:38 36.087404 -116.421248 114 9439ft 178kts
16-Aug-20 14:39 36.067385 -116.365036 114 9439ft 178kts
16-Aug-20 14:40 36.047360 -116.308891 114 9438ft 178kts
16-Aug-20 14:41 36.027354 -116.252911 115 9438ft 177kts
16-Aug-20 14:42 36.007365 -116.197076 115 9438ft 177kts
16-Aug-20 14:43 35.984945 -116.142837 118 9432ft 177kts
16-Aug-20 14:44 35.964062 -116.086808 115 9269ft 183kts
16-Aug-20 14:45 35.943044 -116.028540 115 8973ft 187kts
16-Aug-20 14:46 35.921704 -115.969475 115 8594ft 189kts
16-Aug-20 14:46 35.903690 -115.919703 115 8194ft 194kts
16-Aug-20 14:48 35.876500 -115.844711 116 7068ft 203kts
16-Aug-20 14:49 35.853533 -115.781539 116 6147ft 200kts
16-Aug-20 14:49 35.834564 -115.729474 116 5391ft 198kts
16-Aug-20 14:50 35.812161 -115.668053 115 4488ft 190kts
16-Aug-20 14:51 35.797255 -115.614360 50 4243ft 142kts
16-Aug-20 14:53 35.834448 -115.610419 302 3511ft 112kts
16-Aug-20 14:53 35.826765 -115.609619 89 3186ft 79kts
16-Aug-20 14:54 35.822439 -115.590025 20 2964ft 23kts

Navigation Log

Ident Type
Flight plan parsing failed, navigation log unavailable